createdAt,value
2023-05-14T00:01:14.873Z,67.63
2023-05-14T00:03:59.931Z,68.21
2023-05-14T00:06:44.993Z,69.44
2023-05-14T00:09:29.859Z,68.98
2023-05-14T00:12:14.881Z,69.20
2023-05-14T00:14:59.805Z,68.28
2023-05-14T00:17:44.862Z,68.17
2023-05-14T00:20:30.025Z,68.11
2023-05-14T00:23:14.975Z,67.52
2023-05-14T00:25:59.971Z,68.51
2023-05-14T00:28:44.987Z,68.08
2023-05-14T00:31:30.011Z,67.87
2023-05-14T00:34:15.014Z,68.34
2023-05-14T00:37:00.056Z,68.16
2023-05-14T00:39:45.200Z,69.08
2023-05-14T00:42:30.125Z,68.77
2023-05-14T00:45:15.288Z,68.84
2023-05-14T00:48:00.333Z,68.76
2023-05-14T00:50:45.302Z,68.84
2023-05-14T00:53:30.260Z,69.04
2023-05-14T00:56:15.493Z,68.29
2023-05-14T00:59:00.469Z,68.54
2023-05-14T01:01:45.383Z,68.74
2023-05-14T01:04:30.359Z,68.41
2023-05-14T01:07:15.264Z,67.96
2023-05-14T01:10:00.348Z,67.71
2023-05-14T01:12:45.311Z,67.33
2023-05-14T01:15:30.292Z,67.48
2023-05-14T01:18:15.206Z,67.10
2023-05-14T01:21:00.177Z,67.21
2023-05-14T01:23:45.216Z,67.04
2023-05-14T01:26:30.166Z,68.33
2023-05-14T01:29:15.175Z,67.51
2023-05-14T01:32:00.229Z,67.94
2023-05-14T01:34:45.148Z,68.05
2023-05-14T01:37:30.006Z,67.58
2023-05-14T01:40:15.210Z,67.55
2023-05-14T01:43:00.515Z,68.35
2023-05-14T01:45:45.585Z,67.77
2023-05-14T01:48:30.448Z,67.72
2023-05-14T01:51:15.408Z,66.60
2023-05-14T01:54:00.604Z,66.53
2023-05-14T01:56:45.605Z,66.60
2023-05-14T01:59:30.625Z,66.72
2023-05-14T02:02:15.635Z,66.56
2023-05-14T02:05:00.773Z,66.26
2023-05-14T02:07:45.818Z,65.23
2023-05-14T02:10:30.779Z,65.68
2023-05-14T02:13:15.841Z,65.54
2023-05-14T02:16:00.807Z,65.37
2023-05-14T02:18:45.859Z,65.73
2023-05-14T02:21:30.752Z,65.35
2023-05-14T02:24:15.889Z,66.45
2023-05-14T02:27:00.851Z,67.50
2023-05-14T02:29:46.036Z,68.60
2023-05-14T02:32:31.142Z,68.12
2023-05-14T02:35:16.046Z,69.09
2023-05-14T02:38:01.051Z,69.47
2023-05-14T02:40:45.975Z,70.30
2023-05-14T02:43:31.111Z,70.16
2023-05-14T02:46:16.149Z,70.12
2023-05-14T02:49:01.080Z,69.95
2023-05-14T02:51:46.117Z,70.01
2023-05-14T02:54:31.157Z,69.63
2023-05-14T02:57:16.129Z,69.03
2023-05-14T03:00:00.983Z,68.90
2023-05-14T03:02:46.633Z,68.85
2023-05-14T03:05:31.944Z,69.33
2023-05-14T03:08:16.909Z,69.26
2023-05-14T03:11:01.992Z,68.51
2023-05-14T03:13:46.860Z,68.03
2023-05-14T03:16:32.121Z,67.87
2023-05-14T03:19:17.236Z,67.61
2023-05-14T03:22:02.114Z,67.77
2023-05-14T03:24:47.204Z,67.38
2023-05-14T03:27:32.194Z,67.89
2023-05-14T03:30:17.196Z,68.29
2023-05-14T03:33:02.076Z,68.34
2023-05-14T03:35:47.136Z,67.74
2023-05-14T03:38:32.185Z,66.84
2023-05-14T03:41:17.235Z,66.80
2023-05-14T03:44:02.233Z,67.97
2023-05-14T03:46:47.251Z,67.64
2023-05-14T03:49:32.175Z,67.56
2023-05-14T03:52:17.349Z,67.66
2023-05-14T03:55:02.369Z,67.01
2023-05-14T03:57:47.401Z,66.71
2023-05-14T04:00:32.473Z,66.10
2023-05-14T04:03:17.499Z,64.96
2023-05-14T04:06:02.296Z,64.71
2023-05-14T04:08:47.193Z,64.39
2023-05-14T04:11:32.400Z,63.37
2023-05-14T04:14:17.309Z,63.65
2023-05-14T04:17:02.481Z,63.22
2023-05-14T04:19:47.497Z,63.24
2023-05-14T04:22:32.488Z,63.02
2023-05-14T04:25:17.445Z,62.78
2023-05-14T04:28:02.411Z,62.48
2023-05-14T04:30:47.615Z,62.50
2023-05-14T04:33:32.599Z,62.46
2023-05-14T04:36:17.671Z,61.95
2023-05-14T04:39:02.707Z,61.26
2023-05-14T04:41:47.644Z,61.82
2023-05-14T04:44:32.658Z,62.18
2023-05-14T04:47:17.649Z,61.84
2023-05-14T04:50:02.887Z,62.36
2023-05-14T04:52:47.784Z,62.36
2023-05-14T04:55:32.842Z,62.45
2023-05-14T04:58:17.769Z,60.44
2023-05-14T05:01:02.969Z,60.90
2023-05-14T05:03:48.047Z,60.80
2023-05-14T05:06:33.018Z,60.63
2023-05-14T05:09:17.911Z,61.80
2023-05-14T05:12:02.770Z,61.53
2023-05-14T05:14:47.807Z,61.35
2023-05-14T05:17:32.845Z,62.26
2023-05-14T05:20:17.943Z,62.46
2023-05-14T05:23:02.935Z,62.14
2023-05-14T05:25:47.832Z,63.31
2023-05-14T05:28:32.920Z,63.12
2023-05-14T05:31:19.814Z,63.65
2023-05-14T05:34:05.120Z,62.82
2023-05-14T05:36:50.087Z,63.37
2023-05-14T05:39:35.408Z,64.23
2023-05-14T05:42:20.156Z,63.86
2023-05-14T05:45:05.145Z,64.88
2023-05-14T05:47:50.292Z,63.85
2023-05-14T05:50:35.179Z,63.54
2023-05-14T05:53:20.142Z,64.41
2023-05-14T05:56:05.309Z,62.86
2023-05-14T05:58:50.075Z,62.25
2023-05-14T06:01:35.272Z,63.35
2023-05-14T06:04:20.241Z,64.08
2023-05-14T06:07:05.296Z,64.39
2023-05-14T06:09:50.287Z,63.21
2023-05-14T06:12:35.616Z,63.28
2023-05-14T06:15:20.814Z,66.53
2023-05-14T06:18:06.022Z,64.29
2023-05-14T06:20:50.944Z,65.20
2023-05-14T06:23:35.976Z,64.27
2023-05-14T06:26:20.979Z,64.71
2023-05-14T06:29:05.862Z,65.29
2023-05-14T06:31:50.636Z,66.05
2023-05-14T06:34:35.644Z,65.00
2023-05-14T06:37:20.693Z,63.00
2023-05-14T06:40:05.688Z,62.52
2023-05-14T06:42:50.710Z,61.95
2023-05-14T06:45:35.744Z,61.80
2023-05-14T06:48:20.859Z,61.87
2023-05-14T06:51:05.567Z,60.54
2023-05-14T06:53:50.541Z,60.95
2023-05-14T06:56:35.618Z,60.91
2023-05-14T06:59:20.469Z,61.05
2023-05-14T07:02:05.589Z,61.87
2023-05-14T07:04:50.557Z,61.23
2023-05-14T07:07:35.629Z,64.07
2023-05-14T07:10:20.647Z,65.58
2023-05-14T07:13:05.725Z,62.03
2023-05-14T07:15:50.668Z,63.91
2023-05-14T07:18:35.716Z,65.16
2023-05-14T07:21:20.895Z,65.24
2023-05-14T07:24:05.903Z,66.32
2023-05-14T07:26:51.034Z,63.62
2023-05-14T07:29:36.053Z,63.95
2023-05-14T07:32:21.232Z,63.84
2023-05-14T07:35:06.154Z,63.75
2023-05-14T07:37:51.043Z,66.28
2023-05-14T07:40:36.306Z,64.13
2023-05-14T07:43:21.349Z,66.94
2023-05-14T07:46:06.437Z,68.47
2023-05-14T07:48:51.400Z,69.02
2023-05-14T07:51:36.509Z,71.13
2023-05-14T07:54:21.630Z,71.79
2023-05-14T07:57:06.600Z,72.59
2023-05-14T07:59:51.633Z,73.25
2023-05-14T08:02:36.616Z,73.56
2023-05-14T08:05:21.544Z,73.60
2023-05-14T08:08:06.478Z,74.89
2023-05-14T08:10:51.819Z,73.61
2023-05-14T08:13:36.729Z,73.35
2023-05-14T08:16:21.789Z,71.95
2023-05-14T08:19:06.712Z,72.33
2023-05-14T08:21:51.614Z,71.99
2023-05-14T08:24:36.628Z,70.39
2023-05-14T08:27:21.645Z,69.98
2023-05-14T08:30:06.564Z,70.60
2023-05-14T08:32:51.470Z,70.25
2023-05-14T08:35:36.534Z,69.28
2023-05-14T08:38:21.309Z,68.00
2023-05-14T08:41:06.352Z,66.78
2023-05-14T08:43:51.402Z,64.58
2023-05-14T08:46:36.483Z,64.05
2023-05-14T08:49:21.552Z,63.44
2023-05-14T08:52:06.402Z,61.45
2023-05-14T08:54:51.541Z,62.57
2023-05-14T08:57:36.439Z,63.22
2023-05-14T09:00:21.687Z,60.24
2023-05-14T09:03:06.550Z,59.76
2023-05-14T09:05:51.462Z,59.97
2023-05-14T09:08:36.596Z,59.10
2023-05-14T09:11:21.488Z,58.78
2023-05-14T09:14:06.540Z,61.61
2023-05-14T09:16:51.732Z,60.80
2023-05-14T09:19:36.552Z,63.76
2023-05-14T09:22:21.415Z,61.19
2023-05-14T09:25:06.543Z,61.92
2023-05-14T09:27:51.477Z,60.56
2023-05-14T09:30:36.331Z,60.72
2023-05-14T09:33:21.446Z,60.35
2023-05-14T09:36:06.386Z,57.24
2023-05-14T09:38:51.500Z,58.67
2023-05-14T09:41:36.515Z,60.13
2023-05-14T09:44:21.505Z,62.10
2023-05-14T09:47:06.444Z,63.36
2023-05-14T09:49:51.406Z,62.00
2023-05-14T09:52:37.399Z,62.24
2023-05-14T09:55:22.445Z,62.68
2023-05-14T09:58:07.447Z,64.31
2023-05-14T10:00:52.411Z,63.40
2023-05-14T10:03:37.339Z,63.27
2023-05-14T10:06:22.193Z,62.46
2023-05-14T10:09:07.390Z,63.85
2023-05-14T10:11:52.452Z,60.48
2023-05-14T10:14:37.458Z,60.92
2023-05-14T10:17:22.429Z,60.20
2023-05-14T10:20:07.407Z,59.70
2023-05-14T10:22:52.567Z,58.86
2023-05-14T10:25:37.579Z,59.50
2023-05-14T10:28:22.578Z,62.55
2023-05-14T10:31:07.654Z,62.61
2023-05-14T10:33:52.532Z,60.52
2023-05-14T10:36:37.577Z,59.08
2023-05-14T10:39:22.548Z,59.32
2023-05-14T10:42:07.571Z,58.22
2023-05-14T10:44:52.430Z,62.30
2023-05-14T10:47:37.616Z,60.25
2023-05-14T10:50:22.728Z,56.43
2023-05-14T10:53:08.154Z,55.39
2023-05-14T10:55:53.029Z,55.90
2023-05-14T10:58:37.954Z,57.28
2023-05-14T11:01:23.054Z,58.17
2023-05-14T11:04:08.167Z,57.90
2023-05-14T11:06:53.027Z,58.68
2023-05-14T11:09:37.982Z,58.53
2023-05-14T11:12:23.118Z,57.16
2023-05-14T11:15:08.072Z,57.70
2023-05-14T11:17:53.079Z,54.66
2023-05-14T11:20:37.992Z,54.60
2023-05-14T11:23:23.009Z,55.13
2023-05-14T11:26:08.139Z,55.96
2023-05-14T11:28:53.134Z,57.10
2023-05-14T11:31:38.165Z,54.92
2023-05-14T11:34:23.078Z,55.11
2023-05-14T11:37:08.178Z,52.44
2023-05-14T11:39:53.125Z,51.95
2023-05-14T11:42:38.208Z,51.51
2023-05-14T11:45:23.257Z,51.89
2023-05-14T11:48:08.393Z,51.81
2023-05-14T11:50:53.408Z,53.88
2023-05-14T11:53:38.448Z,53.61
2023-05-14T11:56:23.348Z,54.36
2023-05-14T11:59:08.303Z,55.18
2023-05-14T12:01:53.418Z,55.77
2023-05-14T12:04:38.446Z,54.47
2023-05-14T12:07:23.338Z,53.18
2023-05-14T12:10:08.487Z,52.66
2023-05-14T12:12:53.428Z,51.78
2023-05-14T12:15:38.388Z,53.39
2023-05-14T12:18:24.951Z,53.33
2023-05-14T12:21:10.427Z,51.60
2023-05-14T12:23:55.392Z,51.64
2023-05-14T12:26:40.281Z,52.86
2023-05-14T12:29:25.299Z,52.25
2023-05-14T12:32:10.187Z,51.42
2023-05-14T12:34:55.170Z,50.83
2023-05-14T12:37:40.292Z,50.07
2023-05-14T12:40:25.423Z,49.33
2023-05-14T12:43:10.713Z,48.94
2023-05-14T12:45:55.701Z,48.94
2023-05-14T12:48:40.898Z,49.21
2023-05-14T12:51:25.848Z,49.69
2023-05-14T12:54:11.076Z,49.74
2023-05-14T12:56:55.964Z,49.86
2023-05-14T12:59:41.108Z,49.30
2023-05-14T13:02:26.142Z,49.75
2023-05-14T13:05:11.197Z,47.35
2023-05-14T13:07:56.280Z,47.16
2023-05-14T13:10:41.208Z,44.20
2023-05-14T13:13:26.166Z,42.27
2023-05-14T13:16:11.086Z,41.65
2023-05-14T13:18:55.958Z,45.51
2023-05-14T13:21:40.737Z,43.34
2023-05-14T13:24:25.980Z,42.90
2023-05-14T13:27:10.841Z,41.17
2023-05-14T13:29:55.775Z,40.11
2023-05-14T13:32:42.241Z,43.06
2023-05-14T13:35:27.170Z,41.86
2023-05-14T13:38:12.146Z,41.15
2023-05-14T13:40:57.116Z,39.36
2023-05-14T13:43:42.192Z,39.63
2023-05-14T13:46:27.376Z,39.16
2023-05-14T13:49:12.322Z,35.26
2023-05-14T13:51:57.383Z,35.77
2023-05-14T13:54:42.357Z,37.97
2023-05-14T13:57:27.393Z,37.94
2023-05-14T14:00:12.348Z,40.00
2023-05-14T14:02:57.458Z,37.99
2023-05-14T14:05:42.590Z,36.29
2023-05-14T14:08:27.397Z,37.73
2023-05-14T14:11:12.608Z,37.75
2023-05-14T14:13:57.533Z,37.49
2023-05-14T14:16:42.645Z,35.70
2023-05-14T14:19:27.565Z,35.64
2023-05-14T14:22:12.615Z,36.14
2023-05-14T14:24:57.623Z,37.81
2023-05-14T14:27:42.573Z,38.81
2023-05-14T14:30:27.539Z,35.78
2023-05-14T14:33:12.586Z,41.53
2023-05-14T14:35:57.653Z,42.19
2023-05-14T14:38:42.517Z,41.69
2023-05-14T14:41:27.632Z,41.68
2023-05-14T14:44:12.580Z,39.75
2023-05-14T14:46:57.659Z,40.71
2023-05-14T14:49:42.560Z,42.80
2023-05-14T14:52:27.652Z,43.17
2023-05-14T14:55:12.543Z,43.03
2023-05-14T14:57:57.582Z,42.36
2023-05-14T15:00:42.639Z,40.54
2023-05-14T15:03:27.742Z,39.97
2023-05-14T15:06:12.784Z,39.73
2023-05-14T15:08:57.748Z,36.91
2023-05-14T15:11:42.979Z,38.37
2023-05-14T15:14:27.811Z,38.85
2023-05-14T15:17:12.790Z,38.25
2023-05-14T15:19:57.756Z,38.34
2023-05-14T15:22:42.666Z,38.28
2023-05-14T15:25:27.713Z,38.51
2023-05-14T15:28:12.590Z,38.72
2023-05-14T15:30:57.591Z,41.54
2023-05-14T15:33:42.522Z,40.79
2023-05-14T15:36:27.503Z,41.67
2023-05-14T15:39:12.531Z,41.72
2023-05-14T15:41:57.615Z,40.89
2023-05-14T15:44:42.735Z,38.88
2023-05-14T15:47:27.623Z,40.94
2023-05-14T15:50:12.746Z,39.66
2023-05-14T15:52:57.690Z,41.13
2023-05-14T15:55:42.766Z,41.88
2023-05-14T15:58:27.623Z,42.87
2023-05-14T16:01:12.608Z,43.29
2023-05-14T16:03:57.732Z,44.49
2023-05-14T16:06:42.494Z,44.29
2023-05-14T16:09:27.651Z,44.73
2023-05-14T16:12:12.603Z,44.44
2023-05-14T16:14:57.811Z,43.39
2023-05-14T16:17:42.796Z,44.40
2023-05-14T16:20:27.893Z,43.93
2023-05-14T16:23:12.674Z,42.40
2023-05-14T16:25:57.611Z,40.98
2023-05-14T16:28:42.688Z,41.67
2023-05-14T16:31:27.590Z,40.66
2023-05-14T16:34:12.639Z,39.30
2023-05-14T16:36:57.592Z,39.14
2023-05-14T16:39:42.692Z,39.22
2023-05-14T16:42:27.593Z,39.76
2023-05-14T16:45:12.493Z,39.90
2023-05-14T16:47:57.467Z,39.07
2023-05-14T16:50:42.421Z,38.03
2023-05-14T16:53:27.371Z,37.45
2023-05-14T16:56:12.248Z,37.67
2023-05-14T16:58:57.484Z,37.96
2023-05-14T17:01:42.467Z,39.69
2023-05-14T17:04:27.646Z,40.76
2023-05-14T17:07:13.626Z,40.88
2023-05-14T17:09:58.778Z,41.41
2023-05-14T17:12:43.823Z,41.23
2023-05-14T17:15:28.921Z,39.83
2023-05-14T17:18:14.048Z,40.76
2023-05-14T17:20:58.940Z,39.56
2023-05-14T17:23:43.973Z,39.04
2023-05-14T17:26:28.789Z,40.49
2023-05-14T17:29:13.838Z,43.21
2023-05-14T17:31:58.695Z,44.21
2023-05-14T17:34:43.638Z,43.84
2023-05-14T17:37:28.566Z,42.04
2023-05-14T17:40:13.482Z,43.32
2023-05-14T17:42:58.594Z,44.27
2023-05-14T17:45:53.864Z,45.19
2023-05-14T17:48:39.518Z,44.38
2023-05-14T17:51:24.442Z,43.76
2023-05-14T17:54:09.523Z,42.11
2023-05-14T17:56:54.514Z,41.95
2023-05-14T17:59:39.756Z,41.00
2023-05-14T18:02:24.722Z,39.76
2023-05-14T18:05:09.691Z,41.30
2023-05-14T18:07:54.677Z,44.05
2023-05-14T18:10:39.766Z,45.10
2023-05-14T18:13:24.570Z,45.09
2023-05-14T18:16:09.537Z,44.72
2023-05-14T18:18:54.720Z,45.11
2023-05-14T18:21:39.635Z,44.92
2023-05-14T18:24:24.662Z,45.71
2023-05-14T18:27:09.532Z,44.04
2023-05-14T18:29:54.754Z,44.48
2023-05-14T18:32:39.829Z,45.67
2023-05-14T18:35:25.130Z,44.90
2023-05-14T18:38:10.028Z,44.43
2023-05-14T18:40:54.981Z,44.15
2023-05-14T18:43:40.151Z,43.37
2023-05-14T18:46:25.125Z,43.34
2023-05-14T18:49:10.095Z,43.56
2023-05-14T18:51:54.957Z,44.18
2023-05-14T18:54:39.943Z,43.87
2023-05-14T18:57:25.020Z,44.49
2023-05-14T19:00:10.050Z,45.08
2023-05-14T19:02:55.112Z,45.42
2023-05-14T19:05:39.883Z,45.84
2023-05-14T19:08:24.965Z,46.36
2023-05-14T19:11:09.940Z,46.44
2023-05-14T19:13:54.981Z,48.08
2023-05-14T19:16:39.793Z,48.63
2023-05-14T19:19:24.699Z,48.64
2023-05-14T19:22:09.783Z,47.56
2023-05-14T19:24:54.676Z,47.43
2023-05-14T19:27:39.766Z,47.31
2023-05-14T19:30:24.658Z,47.15
2023-05-14T19:33:09.767Z,47.43
2023-05-14T19:35:54.630Z,47.71
2023-05-14T19:38:39.814Z,47.63
2023-05-14T19:41:24.801Z,47.44
2023-05-14T19:44:09.756Z,47.74
2023-05-14T19:46:54.985Z,48.42
2023-05-14T19:49:39.779Z,49.22
2023-05-14T19:52:24.882Z,49.41
2023-05-14T19:55:09.908Z,49.52
2023-05-14T19:57:55.048Z,49.13
2023-05-14T20:00:39.876Z,49.32
2023-05-14T20:03:24.861Z,49.27
2023-05-14T20:06:09.917Z,48.89
2023-05-14T20:08:54.954Z,50.04
2023-05-14T20:11:39.917Z,50.34
2023-05-14T20:14:24.930Z,49.97
2023-05-14T20:17:10.202Z,49.32
2023-05-14T20:19:55.018Z,49.77
2023-05-14T20:22:40.097Z,49.76
2023-05-14T20:25:26.680Z,50.18
2023-05-14T20:28:12.940Z,51.50
2023-05-14T20:30:58.094Z,52.24
2023-05-14T20:33:43.019Z,51.64
2023-05-14T20:36:27.978Z,52.02
2023-05-14T20:39:13.029Z,52.57
2023-05-14T20:41:58.125Z,52.05
2023-05-14T20:44:42.983Z,52.25
2023-05-14T20:47:28.070Z,51.30
2023-05-14T20:50:13.097Z,51.55
2023-05-14T20:52:57.999Z,51.90
2023-05-14T20:55:43.124Z,52.22
2023-05-14T20:58:28.101Z,52.19
2023-05-14T21:01:13.019Z,51.79
2023-05-14T21:03:58.233Z,52.53
2023-05-14T21:06:42.906Z,52.92
2023-05-14T21:09:28.117Z,52.88
2023-05-14T21:12:13.084Z,52.82
2023-05-14T21:14:58.111Z,52.56
2023-05-14T21:17:43.065Z,52.93
2023-05-14T21:20:28.107Z,54.28
2023-05-14T21:23:12.675Z,54.20
2023-05-14T21:25:57.690Z,52.95
2023-05-14T21:28:42.680Z,52.89
2023-05-14T21:31:27.722Z,52.93
2023-05-14T21:34:12.713Z,52.74
2023-05-14T21:36:57.631Z,52.87
2023-05-14T21:39:42.690Z,52.92
2023-05-14T21:42:27.740Z,52.42
2023-05-14T21:45:12.633Z,52.22
2023-05-14T21:47:57.584Z,52.25
2023-05-14T21:50:42.586Z,53.67
2023-05-14T21:53:27.586Z,54.16
2023-05-14T21:56:12.628Z,53.91
2023-05-14T21:58:57.685Z,53.25
2023-05-14T22:01:56.172Z,53.45
2023-05-14T22:04:47.131Z,53.78
2023-05-14T22:07:32.196Z,54.08
2023-05-14T22:10:17.228Z,53.55
2023-05-14T22:13:02.216Z,53.06
2023-05-14T22:15:47.399Z,53.29
2023-05-14T22:18:33.206Z,53.95
2023-05-14T22:21:18.246Z,53.06
2023-05-14T22:24:03.386Z,53.92
2023-05-14T22:26:48.501Z,54.10
2023-05-14T22:29:33.530Z,53.98
2023-05-14T22:32:18.739Z,53.72
2023-05-14T22:35:03.712Z,53.07
2023-05-14T22:37:48.777Z,53.03
2023-05-14T22:40:33.749Z,53.05
2023-05-14T22:43:18.888Z,53.23
2023-05-14T22:46:04.003Z,52.85
2023-05-14T22:48:48.878Z,52.50
2023-05-14T22:51:33.848Z,52.07
2023-05-14T22:54:18.691Z,51.79
2023-05-14T22:57:03.734Z,51.71
2023-05-14T22:59:48.613Z,51.95
2023-05-14T23:02:33.714Z,51.97
2023-05-14T23:05:18.637Z,51.34
2023-05-14T23:08:03.690Z,51.53
2023-05-14T23:10:48.759Z,50.23
2023-05-14T23:13:33.763Z,50.88
2023-05-14T23:16:18.867Z,51.16
2023-05-14T23:19:04.008Z,52.33
2023-05-14T23:21:49.047Z,53.41
2023-05-14T23:24:34.036Z,55.19
2023-05-14T23:27:19.016Z,55.70
2023-05-14T23:30:04.001Z,55.98
2023-05-14T23:32:49.024Z,55.68
2023-05-14T23:35:34.103Z,55.34
2023-05-14T23:38:19.108Z,55.39
2023-05-14T23:41:04.153Z,55.71
2023-05-14T23:43:49.020Z,56.19
2023-05-14T23:46:34.145Z,56.04
2023-05-14T23:49:19.077Z,55.83
2023-05-14T23:52:04.072Z,55.97
2023-05-14T23:54:49.271Z,56.57
2023-05-14T23:57:34.199Z,56.62
